Aérodrome :
LOGIN :

S'inscrire | Disclaimer

   EN    FR    IT 

 










Légende :    VFR   VFR Marginal   IFR   IFR Intensif   IFR Très Intensif
Visi : 
Plafond : 
>= 8 km
>= 3000ft
5 à 8 km
1000 à 3000 ft
1500m à 5 km
500 à 1000 ft
800 à 1500m
200 à 500 ft
< 800m
< 200 ft
Symboles :   Orages  Brouillard  Fortes neiges  Fortes précipitations  Vent > 20 kt
SIGMETs :   Divers  Orages  Givrage  Turbulence  Onde Orograph.  Cendres Volcan.







- Altitude de l'aérodrome : 219 ft
- Code IATA : DNR
- Voir les cartes d'approche


LFRD - Dinard

DERNIER METAR :
  • 210100Z AUTO 19006KT 9999 OVC017 06/05 Q1025 TEMPO 0500 FG VV///

METARs EXPIRÉS :
  • 210030Z AUTO 17004KT 9000 BKN018 06/05 Q1025 TEMPO 0500 FG VV///
  • 210000Z AUTO 20005KT 9999 SCT012 05/04 Q1025 TEMPO 0500 FG VV///
  • 202330Z AUTO 20007KT 8000 BKN011 06/05 Q1025 TEMPO 0500 FG VV///
  • 202300Z AUTO 20007KT 7000 FEW013 06/05 Q1025 TEMPO 0500 FG VV///
  • 202230Z AUTO 20007KT 8000 NSC 06/05 Q1024 TEMPO 0500 FG VV///

TAF TAF LFRD
Valide du 21 à 00h jusqu'au 22 à 00h UTC


202300Z 2100/2124 17007KT 3000 BR BKN004
PROB40
TEMPO 2100/2108 0500 FG VV///
BECMG 2109/2111 9999 NSW BKN006
BECMG 2112/2114 CAVOK
BECMG 2119/2121 3000 BR
TEMPO 2122/2124 0500 FG
ATIS : +33 2 99 16 81 50
Pas de NOTAMs connus pour ce terrain.



MET'MAP, la Météo Aéronautique d'un coup d'oeil ! - Copyright ORBIFLY Décembre 2007 - Disclaimer

ORBIFLY MET'MAP TEAM :

Programmation & Développement : Alexandra Zaïnal
Conception & Développement : Baudouin d'Aumeries
Co-Programmation & Développement : Marc-Olivier Méhu
Soutien technique & logistique : Manuel Goepfert

Contact : metmap@orbifly.com




SOURCES & CREDITS :

   NOAA